createdAt,value
2017-08-05T00:00:15.733Z,0
2017-08-05T00:01:17.111Z,0
2017-08-05T00:02:18.512Z,0
2017-08-05T00:03:19.894Z,0
2017-08-05T00:04:21.328Z,0
2017-08-05T00:05:22.706Z,0
2017-08-05T00:06:24.091Z,0
2017-08-05T00:07:25.466Z,0
2017-08-05T00:08:26.848Z,0
2017-08-05T00:09:28.230Z,0
2017-08-05T00:10:29.661Z,0
2017-08-05T00:11:31.042Z,0
2017-08-05T00:12:32.425Z,0
2017-08-05T00:13:33.802Z,0
2017-08-05T00:14:35.187Z,0
2017-08-05T00:15:36.566Z,0
2017-08-05T00:16:37.941Z,0
2017-08-05T00:17:39.318Z,0
2017-08-05T00:18:40.697Z,0
2017-08-05T00:19:42.096Z,0
2017-08-05T00:20:43.475Z,0
2017-08-05T00:21:44.847Z,0
2017-08-05T00:22:46.230Z,0
2017-08-05T00:23:47.611Z,0
2017-08-05T00:24:48.992Z,0
2017-08-05T00:25:50.369Z,0
2017-08-05T00:26:51.748Z,0
2017-08-05T00:27:53.125Z,0
2017-08-05T00:28:54.506Z,0
2017-08-05T00:29:55.899Z,0
2017-08-05T00:30:57.275Z,0
2017-08-05T00:31:58.660Z,0
2017-08-05T00:33:00.034Z,0
2017-08-05T00:34:01.410Z,0
2017-08-05T00:35:02.794Z,0
2017-08-05T00:36:04.169Z,0
2017-08-05T00:37:05.558Z,0
2017-08-05T00:38:06.930Z,0
2017-08-05T00:39:08.317Z,0
2017-08-05T00:40:09.707Z,0
2017-08-05T00:41:11.100Z,0
2017-08-05T00:42:12.484Z,0
2017-08-05T00:43:13.870Z,0
2017-08-05T00:44:15.249Z,0
2017-08-05T00:45:16.631Z,0
2017-08-05T00:46:18.027Z,0
2017-08-05T00:47:19.386Z,0
2017-08-05T00:48:20.802Z,0
2017-08-05T00:49:22.179Z,0
2017-08-05T00:50:23.571Z,0
2017-08-05T00:51:24.941Z,0
2017-08-05T00:52:26.321Z,0
2017-08-05T00:53:27.710Z,0
2017-08-05T00:54:29.077Z,0
2017-08-05T00:55:30.462Z,0
2017-08-05T00:56:31.836Z,0
2017-08-05T00:57:33.215Z,0
2017-08-05T00:58:34.597Z,0
2017-08-05T00:59:35.981Z,0
2017-08-05T01:00:37.365Z,0
2017-08-05T01:01:38.744Z,0
2017-08-05T01:02:40.127Z,0
2017-08-05T01:03:41.509Z,0
2017-08-05T01:04:42.882Z,0
2017-08-05T01:05:44.269Z,0
2017-08-05T01:06:45.647Z,0
2017-08-05T01:07:47.033Z,0
2017-08-05T01:08:48.406Z,0
2017-08-05T01:09:49.782Z,0
2017-08-05T01:10:51.158Z,0
2017-08-05T01:11:52.536Z,0
2017-08-05T01:12:53.912Z,0
2017-08-05T01:13:55.299Z,0
2017-08-05T01:14:56.675Z,0
2017-08-05T01:15:58.053Z,0
2017-08-05T01:16:59.431Z,0
2017-08-05T01:18:00.816Z,0
2017-08-05T01:19:02.186Z,0
2017-08-05T01:20:03.568Z,0
2017-08-05T01:21:04.943Z,0
2017-08-05T01:22:06.323Z,0
2017-08-05T01:23:07.708Z,0
2017-08-05T01:24:09.091Z,0
2017-08-05T01:25:10.452Z,0
2017-08-05T01:26:11.834Z,0
2017-08-05T01:27:13.210Z,0
2017-08-05T01:28:14.598Z,0
2017-08-05T01:29:15.969Z,0
2017-08-05T01:30:17.363Z,0
2017-08-05T01:31:18.726Z,0
2017-08-05T01:32:20.114Z,0
2017-08-05T01:33:21.487Z,0
2017-08-05T01:34:22.899Z,0
2017-08-05T01:35:24.283Z,0
2017-08-05T01:36:26.662Z,0
2017-08-05T01:37:28.040Z,0
2017-08-05T01:38:29.430Z,0
2017-08-05T01:39:30.807Z,0
2017-08-05T01:40:32.185Z,0
2017-08-05T01:41:33.560Z,0
2017-08-05T01:42:34.946Z,0
2017-08-05T01:43:36.322Z,0
2017-08-05T01:44:37.704Z,0
2017-08-05T01:45:39.090Z,0
2017-08-05T01:46:40.472Z,0
2017-08-05T01:47:41.857Z,0
2017-08-05T01:48:43.234Z,0
2017-08-05T01:49:44.623Z,0
2017-08-05T01:50:46.016Z,0
2017-08-05T01:51:47.393Z,0
2017-08-05T01:52:48.778Z,0
2017-08-05T01:53:50.156Z,0
2017-08-05T01:54:51.538Z,0
2017-08-05T01:55:52.916Z,0
2017-08-05T01:56:54.312Z,0
2017-08-05T01:57:55.692Z,0
2017-08-05T01:58:57.067Z,0
2017-08-05T01:59:58.464Z,0
2017-08-05T02:00:59.848Z,0
2017-08-05T02:02:01.228Z,0
2017-08-05T02:03:02.614Z,0
2017-08-05T02:04:03.991Z,0
2017-08-05T02:05:05.383Z,0
2017-08-05T02:06:06.763Z,0
2017-08-05T02:07:08.146Z,0
2017-08-05T02:08:09.537Z,0
2017-08-05T02:09:10.908Z,0
2017-08-05T02:10:12.288Z,0
2017-08-05T02:11:13.673Z,0
2017-08-05T02:12:15.057Z,0
2017-08-05T02:13:16.435Z,0
2017-08-05T02:14:17.813Z,0
2017-08-05T02:15:19.201Z,0
2017-08-05T02:16:20.577Z,0
2017-08-05T02:17:21.966Z,0
2017-08-05T02:18:23.344Z,0
2017-08-05T02:19:24.726Z,0
2017-08-05T02:20:26.101Z,0
2017-08-05T02:21:27.522Z,0
2017-08-05T02:22:28.900Z,0
2017-08-05T02:23:30.280Z,0
2017-08-05T02:24:31.664Z,0
2017-08-05T02:25:33.049Z,0
2017-08-05T02:26:34.433Z,0
2017-08-05T02:27:35.816Z,0
2017-08-05T02:28:37.195Z,0
2017-08-05T02:29:38.579Z,0
2017-08-05T02:30:39.963Z,0
2017-08-05T02:31:41.349Z,0
2017-08-05T02:32:42.731Z,0
2017-08-05T02:33:44.112Z,0
2017-08-05T02:34:45.486Z,0
2017-08-05T02:35:46.893Z,0
2017-08-05T02:36:48.259Z,0
2017-08-05T02:37:49.635Z,0
2017-08-05T02:38:51.020Z,0
2017-08-05T02:39:52.410Z,0
2017-08-05T02:40:53.789Z,0
2017-08-05T02:41:55.170Z,0
2017-08-05T02:42:56.545Z,0
2017-08-05T02:43:57.920Z,0
2017-08-05T02:44:59.303Z,0
2017-08-05T02:46:00.683Z,0
2017-08-05T02:47:02.064Z,0
2017-08-05T02:48:03.445Z,0
2017-08-05T02:49:04.827Z,0
2017-08-05T02:50:06.211Z,0
2017-08-05T02:51:07.592Z,0
2017-08-05T02:52:08.986Z,0
2017-08-05T02:53:10.371Z,0
2017-08-05T02:54:11.756Z,0
2017-08-05T02:55:13.162Z,0
2017-08-05T02:56:14.539Z,0
2017-08-05T02:57:15.913Z,0
2017-08-05T02:58:17.299Z,0
2017-08-05T02:59:18.677Z,0
2017-08-05T03:00:20.063Z,0
2017-08-05T03:01:21.444Z,0
2017-08-05T03:02:22.820Z,0
2017-08-05T03:03:24.201Z,0
2017-08-05T03:04:25.586Z,0
2017-08-05T03:05:26.969Z,0
2017-08-05T03:06:28.354Z,0
2017-08-05T03:07:29.730Z,0
2017-08-05T03:08:31.122Z,0
2017-08-05T03:09:32.495Z,0
2017-08-05T03:10:33.875Z,0
2017-08-05T03:11:35.253Z,0
2017-08-05T03:12:36.630Z,0
2017-08-05T03:13:38.003Z,0
2017-08-05T03:14:39.381Z,0
2017-08-05T03:15:40.761Z,0
2017-08-05T03:16:42.147Z,0
2017-08-05T03:17:43.519Z,0
2017-08-05T03:18:44.898Z,0
2017-08-05T03:19:46.273Z,0
2017-08-05T03:20:47.674Z,0
2017-08-05T03:21:49.049Z,0
2017-08-05T03:22:50.431Z,4
2017-08-05T03:23:51.819Z,4
2017-08-05T03:24:53.194Z,0
2017-08-05T03:25:54.567Z,4
2017-08-05T03:26:55.949Z,4
2017-08-05T03:27:57.324Z,4
2017-08-05T03:28:58.706Z,4
2017-08-05T03:30:00.086Z,4
2017-08-05T03:31:01.476Z,8
2017-08-05T03:32:02.847Z,8
2017-08-05T03:33:04.238Z,8
2017-08-05T03:34:05.615Z,12
2017-08-05T03:35:06.998Z,12
2017-08-05T03:36:08.380Z,16
2017-08-05T03:37:09.774Z,16
2017-08-05T03:38:11.151Z,20
2017-08-05T03:39:12.532Z,24
2017-08-05T03:40:13.906Z,28
2017-08-05T03:41:16.341Z,32
2017-08-05T03:42:17.724Z,36
2017-08-05T03:43:19.106Z,44
2017-08-05T03:44:20.491Z,52
2017-08-05T03:45:21.880Z,64
2017-08-05T03:46:23.258Z,72
2017-08-05T03:47:24.636Z,84
2017-08-05T03:48:26.015Z,96
2017-08-05T03:49:27.398Z,112
2017-08-05T03:50:28.784Z,128
2017-08-05T03:51:30.187Z,148
2017-08-05T03:52:31.567Z,172
2017-08-05T03:53:32.955Z,192
2017-08-05T03:54:34.331Z,216
2017-08-05T03:55:35.718Z,240
2017-08-05T03:56:37.099Z,268
2017-08-05T03:57:38.482Z,304
2017-08-05T03:58:39.887Z,336
2017-08-05T03:59:41.265Z,360
2017-08-05T04:00:42.645Z,392
2017-08-05T04:01:44.033Z,424
2017-08-05T04:02:45.417Z,456
2017-08-05T04:03:46.807Z,500
2017-08-05T04:04:48.199Z,540
2017-08-05T04:05:49.600Z,580
2017-08-05T04:06:50.988Z,620
2017-08-05T04:07:52.369Z,656
2017-08-05T04:08:53.758Z,700
2017-08-05T04:09:55.136Z,744
2017-08-05T04:10:56.526Z,808
2017-08-05T04:11:57.902Z,872
2017-08-05T04:12:59.300Z,936
2017-08-05T04:14:00.684Z,1004
2017-08-05T04:15:02.077Z,1044
2017-08-05T04:16:03.459Z,1088
2017-08-05T04:17:04.851Z,1144
2017-08-05T04:18:06.232Z,1200
2017-08-05T04:19:07.613Z,1256
2017-08-05T04:20:08.999Z,1332
2017-08-05T04:21:10.387Z,1420
2017-08-05T04:22:11.768Z,1520
2017-08-05T04:23:13.152Z,1624
2017-08-05T04:24:14.530Z,1740
2017-08-05T04:25:15.918Z,1820
2017-08-05T04:26:17.298Z,1916
2017-08-05T04:27:18.688Z,1976
2017-08-05T04:28:20.074Z,2040
2017-08-05T04:29:21.455Z,2104
2017-08-05T04:30:22.843Z,2212
2017-08-05T04:31:24.222Z,2324
2017-08-05T04:32:25.608Z,2436
2017-08-05T04:33:26.992Z,2556
2017-08-05T04:34:28.378Z,2652
2017-08-05T04:35:29.762Z,2808
2017-08-05T04:36:31.147Z,2944
2017-08-05T04:37:32.531Z,3044
2017-08-05T04:38:33.929Z,3164
2017-08-05T04:39:35.340Z,3348
2017-08-05T04:40:36.750Z,3460
2017-08-05T04:41:38.154Z,3480
2017-08-05T04:42:39.537Z,3476
2017-08-05T04:43:40.960Z,3664
2017-08-05T04:44:42.330Z,3820
2017-08-05T04:45:43.719Z,4040
2017-08-05T04:46:45.103Z,4160
2017-08-05T04:47:46.497Z,4060
2017-08-05T04:48:47.883Z,3996
2017-08-05T04:49:50.273Z,3952
2017-08-05T04:50:51.656Z,4016
2017-08-05T04:51:53.043Z,4232
2017-08-05T04:52:54.422Z,4472
2017-08-05T04:53:55.810Z,4556
2017-08-05T04:54:57.195Z,4256
2017-08-05T04:55:58.581Z,3872
2017-08-05T04:56:59.973Z,3756
2017-08-05T04:58:01.355Z,3748
2017-08-05T04:59:02.749Z,3972
2017-08-05T05:00:04.165Z,4260
2017-08-05T05:01:05.550Z,4632
2017-08-05T05:02:06.937Z,5080
2017-08-05T05:03:08.325Z,5592
2017-08-05T05:04:09.724Z,5832
2017-08-05T05:05:11.105Z,5908
2017-08-05T05:06:12.572Z,5872
2017-08-05T05:07:13.962Z,5756
2017-08-05T05:08:15.358Z,5692
2017-08-05T05:09:16.740Z,6172
2017-08-05T05:10:18.133Z,6524
2017-08-05T05:11:19.515Z,6772
2017-08-05T05:12:20.921Z,6844
2017-08-05T05:13:22.308Z,7040
2017-08-05T05:14:23.693Z,7280
2017-08-05T05:15:25.116Z,7476
2017-08-05T05:16:26.505Z,7812
2017-08-05T05:17:27.894Z,8140
2017-08-05T05:18:29.283Z,8456
2017-08-05T05:19:30.669Z,8536
2017-08-05T05:20:32.055Z,8688
2017-08-05T05:21:33.433Z,8612
2017-08-05T05:22:34.830Z,8724
2017-08-05T05:23:36.211Z,8576
2017-08-05T05:24:37.602Z,8616
2017-08-05T05:25:38.997Z,9180
2017-08-05T05:26:40.394Z,9796
2017-08-05T05:27:41.781Z,10228
2017-08-05T05:28:43.172Z,10708
2017-08-05T05:29:44.555Z,10804
2017-08-05T05:30:45.948Z,11068
2017-08-05T05:31:47.334Z,11184
2017-08-05T05:32:48.734Z,10816
2017-08-05T05:33:50.136Z,10196
2017-08-05T05:34:51.526Z,10128
2017-08-05T05:35:52.901Z,10400
2017-08-05T05:36:54.305Z,10668
2017-08-05T05:37:55.678Z,11004
2017-08-05T05:38:57.075Z,11268
2017-08-05T05:39:58.464Z,11376
2017-08-05T05:40:59.853Z,11668
2017-08-05T05:42:01.238Z,11560
2017-08-05T05:43:02.633Z,11412
2017-08-05T05:44:04.015Z,12192
2017-08-05T05:45:05.411Z,12240
2017-08-05T05:46:06.799Z,12032
2017-08-05T05:47:08.193Z,11896
2017-08-05T05:48:09.579Z,12432
2017-08-05T05:49:10.971Z,12660
2017-08-05T05:50:12.402Z,12640
2017-08-05T05:51:13.792Z,12536
2017-08-05T05:52:15.182Z,12444
2017-08-05T05:53:16.578Z,11940
2017-08-05T05:54:17.983Z,11916
2017-08-05T05:55:19.362Z,12052
2017-08-05T05:56:20.759Z,11796
2017-08-05T05:57:22.174Z,11508
2017-08-05T05:58:23.558Z,11840
2017-08-05T05:59:24.955Z,12780
2017-08-05T06:00:26.341Z,14148
2017-08-05T06:01:27.759Z,16032
2017-08-05T06:02:29.124Z,17888
2017-08-05T06:03:30.525Z,18528
2017-08-05T06:04:31.908Z,18048
2017-08-05T06:05:33.313Z,16632
2017-08-05T06:06:34.702Z,15656
2017-08-05T06:07:36.096Z,15212
2017-08-05T06:08:37.501Z,14480
2017-08-05T06:09:38.902Z,14312
2017-08-05T06:10:40.286Z,14448
2017-08-05T06:11:41.688Z,15612
2017-08-05T06:12:43.082Z,16656
2017-08-05T06:13:44.475Z,16904
2017-08-05T06:14:45.864Z,16564
2017-08-05T06:15:47.262Z,16640
2017-08-05T06:16:48.650Z,16840
2017-08-05T06:17:50.042Z,17016
2017-08-05T06:18:51.429Z,16792
2017-08-05T06:19:52.826Z,16448
2017-08-05T06:20:54.236Z,15964
2017-08-05T06:21:55.634Z,15488
2017-08-05T06:22:57.027Z,15632
2017-08-05T06:23:58.425Z,15144
2017-08-05T06:24:59.808Z,13676
2017-08-05T06:26:01.200Z,12560
2017-08-05T06:27:02.589Z,12068
2017-08-05T06:28:03.985Z,11648
2017-08-05T06:29:05.376Z,11828
2017-08-05T06:30:06.782Z,11872
2017-08-05T06:31:08.166Z,12500
2017-08-05T06:32:09.564Z,12804
2017-08-05T06:33:10.986Z,13160
2017-08-05T06:34:12.377Z,13732
2017-08-05T06:35:13.769Z,15884
2017-08-05T06:36:15.166Z,18048
2017-08-05T06:37:16.556Z,17920
2017-08-05T06:38:17.956Z,14496
2017-08-05T06:39:19.340Z,12040
2017-08-05T06:40:20.736Z,10972
2017-08-05T06:41:22.129Z,11912
2017-08-05T06:42:23.537Z,13544
2017-08-05T06:43:24.936Z,14536
2017-08-05T06:44:26.331Z,13904
2017-08-05T06:45:27.714Z,12756
2017-08-05T06:46:29.117Z,12148
2017-08-05T06:47:30.506Z,11636
2017-08-05T06:48:31.900Z,11268
2017-08-05T06:49:33.294Z,12012
2017-08-05T06:50:34.683Z,13496
2017-08-05T06:51:36.072Z,13260
2017-08-05T06:52:37.463Z,12508
2017-08-05T06:53:38.855Z,13096
2017-08-05T06:54:40.249Z,14704
2017-08-05T06:55:41.648Z,16580
2017-08-05T06:56:43.043Z,17404
2017-08-05T06:57:44.459Z,18208
2017-08-05T06:58:45.853Z,18752
2017-08-05T06:59:47.243Z,18976
2017-08-05T07:01:32.814Z,19072
2017-08-05T07:02:34.219Z,20864
2017-08-05T07:03:35.612Z,24384
2017-08-05T07:04:36.996Z,26464
2017-08-05T07:05:38.415Z,27072
2017-08-05T07:06:39.806Z,26240
2017-08-05T07:07:41.257Z,23104
2017-08-05T07:08:42.678Z,20128
2017-08-05T07:09:44.150Z,18784
2017-08-05T07:10:45.535Z,18528
2017-08-05T07:11:46.928Z,17984
2017-08-05T07:12:48.347Z,16784
2017-08-05T07:13:49.739Z,17808
2017-08-05T07:14:51.144Z,22784
2017-08-05T07:15:52.567Z,27040
2017-08-05T07:16:53.956Z,34240
2017-08-05T07:17:55.351Z,38560
2017-08-05T07:18:56.735Z,42336
2017-08-05T07:19:58.131Z,48800
2017-08-05T07:20:59.528Z,41472
2017-08-05T07:22:00.940Z,36192
2017-08-05T07:23:02.331Z,33568
2017-08-05T07:24:03.725Z,31776
2017-08-05T07:25:05.115Z,30816
2017-08-05T07:26:06.528Z,31424
2017-08-05T07:27:07.921Z,32192
2017-08-05T07:28:09.322Z,31008
2017-08-05T07:29:10.716Z,29632
2017-08-05T07:30:13.115Z,27808
2017-08-05T07:31:14.519Z,29312
2017-08-05T07:32:15.920Z,32768
2017-08-05T07:33:17.425Z,37088
2017-08-05T07:34:18.825Z,39776
2017-08-05T07:35:20.215Z,39680
2017-08-05T07:36:21.630Z,32416
2017-08-05T07:37:23.011Z,20704
2017-08-05T07:38:24.411Z,40032
2017-08-05T07:39:25.803Z,57536
2017-08-05T07:40:27.213Z,63232
2017-08-05T07:41:28.619Z,71232
2017-08-05T07:42:30.022Z,45024
2017-08-05T07:43:31.419Z,48640
2017-08-05T07:44:32.820Z,44000
2017-08-05T07:45:34.219Z,40864
2017-08-05T07:46:35.618Z,35040
2017-08-05T07:47:37.014Z,32544
2017-08-05T07:48:38.427Z,30176
2017-08-05T07:49:39.844Z,26496
2017-08-05T07:50:41.275Z,24224
2017-08-05T07:51:42.682Z,24928
2017-08-05T07:52:44.086Z,29824
2017-08-05T07:53:45.526Z,30528
2017-08-05T07:54:46.944Z,24800
2017-08-05T07:55:48.367Z,23008
2017-08-05T07:56:49.763Z,22208
2017-08-05T07:57:51.156Z,29888
2017-08-05T07:58:52.557Z,32832
2017-08-05T07:59:53.959Z,31424
2017-08-05T08:01:32.330Z,31520
2017-08-05T08:02:33.719Z,31808
2017-08-05T08:03:35.130Z,32352
2017-08-05T08:04:36.504Z,25824
2017-08-05T08:05:37.897Z,35136
2017-08-05T08:06:39.295Z,34656
2017-08-05T08:07:40.689Z,38112
2017-08-05T08:08:42.089Z,40960
2017-08-05T08:09:43.487Z,40896
2017-08-05T08:10:44.898Z,46784
2017-08-05T08:11:46.298Z,33440
2017-08-05T08:12:47.692Z,32736
2017-08-05T08:13:49.112Z,31968
2017-08-05T08:14:50.502Z,30592
2017-08-05T08:15:51.896Z,27072
2017-08-05T08:16:53.314Z,24480
2017-08-05T08:17:54.707Z,23616
2017-08-05T08:18:56.094Z,23072
2017-08-05T08:19:57.506Z,22848
2017-08-05T08:20:58.895Z,23456
2017-08-05T08:22:00.326Z,26688
2017-08-05T08:23:01.719Z,28832
2017-08-05T08:24:03.121Z,29280
2017-08-05T08:25:04.514Z,26176
2017-08-05T08:26:05.912Z,30304
2017-08-05T08:27:07.318Z,33280
2017-08-05T08:28:08.741Z,31488
2017-08-05T08:29:10.135Z,38656
2017-08-05T08:30:11.544Z,27232
2017-08-05T08:31:12.941Z,26208
2017-08-05T08:32:14.336Z,26144
2017-08-05T08:33:15.747Z,42496
2017-08-05T08:34:17.143Z,56544
2017-08-05T08:35:18.537Z,46368
2017-08-05T08:36:19.939Z,41472
2017-08-05T08:37:21.348Z,62240
2017-08-05T08:38:22.745Z,54560
2017-08-05T08:39:24.142Z,54272
2017-08-05T08:40:25.534Z,59360
2017-08-05T08:41:26.944Z,72672
2017-08-05T08:42:28.363Z,72896
2017-08-05T08:43:29.771Z,108448
2017-08-05T08:44:31.187Z,96864
2017-08-05T08:45:32.581Z,94080
2017-08-05T08:46:33.977Z,54848
2017-08-05T08:47:35.372Z,34784
2017-08-05T08:48:36.775Z,27360
2017-08-05T08:49:38.173Z,20128
2017-08-05T08:50:39.575Z,16768
2017-08-05T08:51:40.982Z,61984
2017-08-05T08:52:42.366Z,103776
2017-08-05T08:53:43.762Z,101440
2017-08-05T08:54:45.171Z,102720
2017-08-05T08:55:46.574Z,105056
2017-08-05T08:56:48.030Z,105344
2017-08-05T08:57:49.439Z,106272
2017-08-05T08:58:50.842Z,45312
2017-08-05T08:59:52.234Z,100992
2017-08-05T09:01:32.401Z,98208
2017-08-05T09:02:33.803Z,89088
2017-08-05T09:03:35.210Z,102208
2017-08-05T09:04:36.613Z,119744
2017-08-05T09:05:38.051Z,33920
2017-08-05T09:06:39.450Z,40800
2017-08-05T09:07:40.870Z,69408
2017-08-05T09:08:42.282Z,100576
2017-08-05T09:09:43.684Z,101312
2017-08-05T09:10:45.097Z,107872
2017-08-05T09:11:46.497Z,49792
2017-08-05T09:12:47.901Z,102240
2017-08-05T09:13:49.306Z,99456
2017-08-05T09:14:50.722Z,96928
2017-08-05T09:15:52.149Z,96096
2017-08-05T09:16:53.549Z,99264
2017-08-05T09:17:54.967Z,101760
2017-08-05T09:18:56.372Z,102368
2017-08-05T09:19:57.776Z,100416
2017-08-05T09:20:59.186Z,75680
2017-08-05T09:22:00.582Z,93312
2017-08-05T09:23:01.987Z,98144
2017-08-05T09:24:03.404Z,102112
2017-08-05T09:25:04.808Z,104544
2017-08-05T09:26:06.221Z,106336
2017-08-05T09:27:07.624Z,34272
2017-08-05T09:28:09.046Z,19616
2017-08-05T09:29:10.451Z,18752
2017-08-05T09:30:11.861Z,105568
2017-08-05T09:31:13.285Z,109632
2017-08-05T09:32:14.668Z,51520
2017-08-05T09:33:16.065Z,53024
2017-08-05T09:34:17.479Z,42848
2017-08-05T09:35:18.878Z,52960
2017-08-05T09:36:20.290Z,37856
2017-08-05T09:37:21.716Z,53600
2017-08-05T09:38:23.123Z,117760
2017-08-05T09:39:24.516Z,40736
2017-08-05T09:40:25.930Z,38144
2017-08-05T09:41:27.326Z,89216
2017-08-05T09:42:28.738Z,129344
2017-08-05T09:43:30.136Z,73760
2017-08-05T09:44:31.546Z,46336
2017-08-05T09:45:32.944Z,48512
2017-08-05T09:46:34.354Z,38464
2017-08-05T09:47:35.752Z,34688
2017-08-05T09:48:37.155Z,33888
2017-08-05T09:49:38.554Z,36704
2017-08-05T09:50:39.986Z,39168
2017-08-05T09:51:41.368Z,43712
2017-08-05T09:52:42.781Z,41792
2017-08-05T09:53:44.173Z,36256
2017-08-05T09:54:45.582Z,32512
2017-08-05T09:55:46.980Z,29344
2017-08-05T09:56:48.383Z,28832
2017-08-05T09:57:49.783Z,28800
2017-08-05T09:58:51.189Z,32384
2017-08-05T09:59:52.591Z,35456
2017-08-05T10:01:32.475Z,29888
2017-08-05T10:02:33.915Z,22720
2017-08-05T10:03:36.315Z,20672
2017-08-05T10:04:37.711Z,18976
2017-08-05T10:05:39.119Z,21696
2017-08-05T10:06:40.520Z,41568
2017-08-05T10:07:41.940Z,34752
2017-08-05T10:08:43.368Z,32832
2017-08-05T10:09:44.764Z,61120
2017-08-05T10:10:46.158Z,130784
2017-08-05T10:11:47.558Z,48288
2017-08-05T10:12:49.019Z,45408
2017-08-05T10:13:50.408Z,76320
2017-08-05T10:14:51.803Z,50336
2017-08-05T10:15:53.204Z,66592
2017-08-05T10:16:54.603Z,43200
2017-08-05T10:17:56.057Z,59936
2017-08-05T10:18:57.451Z,45216
2017-08-05T10:19:58.870Z,47360
2017-08-05T10:21:00.282Z,53408
2017-08-05T10:22:01.703Z,45120
2017-08-05T10:23:03.120Z,46848
2017-08-05T10:24:04.530Z,48416
2017-08-05T10:25:06.023Z,45792
2017-08-05T10:26:07.430Z,46112
2017-08-05T10:27:08.845Z,46080
2017-08-05T10:28:10.268Z,48544
2017-08-05T10:29:11.668Z,48480
2017-08-05T10:30:13.093Z,44480
2017-08-05T10:31:14.486Z,44352
2017-08-05T10:32:15.938Z,40416
2017-08-05T10:33:17.371Z,36576
2017-08-05T10:34:18.783Z,33504
2017-08-05T10:35:20.176Z,31904
2017-08-05T10:36:21.576Z,31008
2017-08-05T10:37:22.986Z,32384
2017-08-05T10:38:24.380Z,32640
2017-08-05T10:39:25.787Z,29760
2017-08-05T10:40:27.187Z,28800
2017-08-05T10:41:28.579Z,34208
2017-08-05T10:42:29.985Z,39104
2017-08-05T10:43:31.387Z,36928
2017-08-05T10:44:32.796Z,31712
2017-08-05T10:45:34.221Z,29920
2017-08-05T10:46:35.618Z,28736
2017-08-05T10:47:37.002Z,27840
2017-08-05T10:48:38.420Z,29600
2017-08-05T10:49:39.809Z,34656
2017-08-05T10:50:41.231Z,35232
2017-08-05T10:51:42.632Z,32992
2017-08-05T10:52:44.047Z,32736
2017-08-05T10:53:45.469Z,35296
2017-08-05T10:54:46.900Z,41888
2017-08-05T10:55:48.306Z,51968
2017-08-05T10:56:49.743Z,56960
2017-08-05T10:57:51.155Z,55104
2017-08-05T10:58:52.556Z,48000
2017-08-05T10:59:53.950Z,42624
2017-08-05T11:00:55.350Z,39168
2017-08-05T11:01:56.745Z,38688
2017-08-05T11:02:58.160Z,44128
2017-08-05T11:03:59.608Z,51328
2017-08-05T11:05:01.004Z,51552
2017-08-05T11:06:02.412Z,52608
2017-08-05T11:07:03.805Z,54112
2017-08-05T11:08:05.217Z,60320
2017-08-05T11:09:06.637Z,61120
2017-08-05T11:10:08.030Z,53152
2017-08-05T11:11:09.432Z,43904
2017-08-05T11:12:10.888Z,35808
2017-08-05T11:13:12.319Z,31936
2017-08-05T11:14:13.773Z,31392
2017-08-05T11:15:15.183Z,33472
2017-08-05T11:16:16.575Z,38720
2017-08-05T11:17:17.988Z,43264
2017-08-05T11:18:19.427Z,46880
2017-08-05T11:19:21.913Z,50688
2017-08-05T11:20:23.319Z,47232
2017-08-05T11:21:24.816Z,44352
2017-08-05T11:22:26.219Z,35808
2017-08-05T11:23:27.702Z,31936
2017-08-05T11:24:29.097Z,28928
2017-08-05T11:25:30.553Z,27520
2017-08-05T11:26:31.950Z,27488
2017-08-05T11:27:33.433Z,27840
2017-08-05T11:28:34.840Z,28288
2017-08-05T11:29:36.252Z,30688
2017-08-05T11:30:37.642Z,32288
2017-08-05T11:31:39.114Z,31552
2017-08-05T11:32:40.519Z,29856
2017-08-05T11:33:41.978Z,29568
2017-08-05T11:34:43.516Z,25472
2017-08-05T11:35:45.038Z,19872
2017-08-05T11:36:46.598Z,16472
2017-08-05T11:37:48.154Z,14968
2017-08-05T11:38:49.697Z,14284
2017-08-05T11:39:51.326Z,13808
2017-08-05T11:40:52.876Z,13364
2017-08-05T11:41:54.458Z,13100
2017-08-05T11:42:56.026Z,13320
2017-08-05T11:43:57.502Z,13392
2017-08-05T11:44:59.027Z,13200
2017-08-05T11:46:00.608Z,12692
2017-08-05T11:47:02.125Z,12856
2017-08-05T11:48:03.633Z,13632
2017-08-05T11:49:05.207Z,13688
2017-08-05T11:50:06.779Z,13352
2017-08-05T11:51:08.294Z,12888
2017-08-05T11:52:09.818Z,12480
2017-08-05T11:53:11.396Z,12372
2017-08-05T11:54:12.885Z,13600
2017-08-05T11:55:14.387Z,16048
2017-08-05T11:56:15.923Z,18304
2017-08-05T11:57:17.473Z,17632
2017-08-05T11:58:18.989Z,15464
2017-08-05T11:59:20.549Z,15408
2017-08-05T12:00:22.188Z,17752
2017-08-05T12:01:23.721Z,19232
2017-08-05T12:02:25.323Z,17828
2017-08-05T12:03:26.904Z,16320
2017-08-05T12:04:28.475Z,16360
2017-08-05T12:05:30.079Z,15476
2017-08-05T12:06:31.694Z,15048
2017-08-05T12:07:33.340Z,16304
2017-08-05T12:08:34.837Z,16896
2017-08-05T12:09:36.349Z,16840
2017-08-05T12:10:37.882Z,16896
2017-08-05T12:11:39.431Z,16260
2017-08-05T12:12:40.965Z,15760
2017-08-05T12:13:42.520Z,14428
2017-08-05T12:14:44.038Z,11836
2017-08-05T12:15:45.563Z,9936
2017-08-05T12:16:47.080Z,8532
2017-08-05T12:17:48.651Z,7928
2017-08-05T12:18:50.140Z,8360
2017-08-05T12:19:51.684Z,9796
2017-08-05T12:20:53.244Z,10180
2017-08-05T12:21:54.786Z,9288
2017-08-05T12:22:56.311Z,7520
2017-08-05T12:23:57.877Z,6208
2017-08-05T12:24:59.437Z,6460
2017-08-05T12:26:00.940Z,6416
2017-08-05T12:27:02.491Z,5380
2017-08-05T12:28:04.031Z,5476
2017-08-05T12:29:05.529Z,5656
2017-08-05T12:30:07.020Z,6236
2017-08-05T12:31:08.570Z,6804
2017-08-05T12:32:10.105Z,9200
2017-08-05T12:33:11.608Z,12848
2017-08-05T12:34:13.187Z,15748
2017-08-05T12:35:14.792Z,18304
2017-08-05T12:36:17.293Z,21152
2017-08-05T12:37:18.808Z,26464
2017-08-05T12:38:20.291Z,31008
2017-08-05T12:39:21.760Z,28896
2017-08-05T12:40:23.230Z,25856
2017-08-05T12:41:24.707Z,25120
2017-08-05T12:42:26.218Z,29632
2017-08-05T12:43:27.728Z,35168
2017-08-05T12:44:29.237Z,38208
2017-08-05T12:45:30.771Z,39264
2017-08-05T12:46:33.306Z,39456
2017-08-05T12:47:34.802Z,38336
2017-08-05T12:48:36.344Z,33376
2017-08-05T12:49:37.958Z,27520
2017-08-05T12:50:39.496Z,24480
2017-08-05T12:51:41.020Z,25408
2017-08-05T12:52:42.543Z,28864
2017-08-05T12:53:44.058Z,30368
2017-08-05T12:54:45.567Z,27616
2017-08-05T12:55:47.061Z,24032
2017-08-05T12:56:48.617Z,24032
2017-08-05T12:57:50.188Z,26528
2017-08-05T12:58:51.732Z,28096
2017-08-05T12:59:53.217Z,25088
2017-08-05T13:00:54.706Z,22272
2017-08-05T13:01:56.263Z,22464
2017-08-05T13:02:57.755Z,23136
2017-08-05T13:03:59.239Z,23904
2017-08-05T13:05:00.754Z,23520
2017-08-05T13:06:02.328Z,23808
2017-08-05T13:07:03.834Z,22880
2017-08-05T13:08:05.375Z,24480
2017-08-05T13:09:06.855Z,31968
2017-08-05T13:10:08.388Z,40480
2017-08-05T13:11:09.899Z,47904
2017-08-05T13:12:11.423Z,53344
2017-08-05T13:13:13.961Z,47584
2017-08-05T13:14:15.482Z,42912
2017-08-05T13:15:16.990Z,40384
2017-08-05T13:16:18.515Z,41440
2017-08-05T13:17:20.008Z,42048
2017-08-05T13:18:21.516Z,39104
2017-08-05T13:19:23.059Z,37824
2017-08-05T13:20:24.568Z,39360
2017-08-05T13:21:26.063Z,38720
2017-08-05T13:22:27.554Z,36736
2017-08-05T13:23:29.073Z,38464
2017-08-05T13:24:30.596Z,45952
2017-08-05T13:25:32.147Z,43936
2017-08-05T13:26:33.971Z,40800
2017-08-05T13:27:35.490Z,38368
2017-08-05T13:28:37.019Z,37920
2017-08-05T13:29:38.581Z,41728
2017-08-05T13:30:40.103Z,50688
2017-08-05T13:31:41.650Z,61664
2017-08-05T13:32:43.223Z,50528
2017-08-05T13:33:44.735Z,46560
2017-08-05T13:34:46.241Z,52608
2017-08-05T13:35:47.840Z,116448
2017-08-05T13:36:49.374Z,133824
2017-08-05T13:37:50.888Z,120800
2017-08-05T13:38:52.420Z,112960
2017-08-05T13:39:54.963Z,111488
2017-08-05T13:40:56.516Z,34304
2017-08-05T13:41:58.098Z,39968
2017-08-05T13:42:59.656Z,41056
2017-08-05T13:44:01.181Z,63776
2017-08-05T13:45:02.704Z,63808
2017-08-05T13:46:04.292Z,27392